createdAt,value
2019-02-02T00:00:41.759Z,2.67
2019-02-02T00:01:41.751Z,2.67
2019-02-02T00:02:41.729Z,2.69
2019-02-02T00:03:41.705Z,2.67
2019-02-02T00:04:41.679Z,2.64
2019-02-02T00:05:41.660Z,2.71
2019-02-02T00:06:41.625Z,2.72
2019-02-02T00:07:41.599Z,2.64
2019-02-02T00:08:41.576Z,2.66
2019-02-02T00:09:41.577Z,2.64
2019-02-02T00:10:41.551Z,2.72
2019-02-02T00:11:41.512Z,2.69
2019-02-02T00:12:41.569Z,2.79
2019-02-02T00:13:41.466Z,2.84
2019-02-02T00:14:41.470Z,2.79
2019-02-02T00:15:41.457Z,2.81
2019-02-02T00:16:41.402Z,2.85
2019-02-02T00:17:41.377Z,2.84
2019-02-02T00:18:41.354Z,2.78
2019-02-02T00:19:41.332Z,2.78
2019-02-02T00:20:41.310Z,2.78
2019-02-02T00:21:41.309Z,2.71
2019-02-02T00:22:41.264Z,2.74
2019-02-02T00:23:41.246Z,2.67
2019-02-02T00:24:41.218Z,2.72
2019-02-02T00:25:41.205Z,2.69
2019-02-02T00:26:42.808Z,2.69
2019-02-02T00:27:41.861Z,2.67
2019-02-02T00:28:41.148Z,2.67
2019-02-02T00:29:41.106Z,2.71
2019-02-02T00:30:41.087Z,2.71
2019-02-02T00:31:41.061Z,2.81
2019-02-02T00:32:41.041Z,2.87
2019-02-02T00:33:41.019Z,2.92
2019-02-02T00:34:41.014Z,2.84
2019-02-02T00:35:40.972Z,2.97
2019-02-02T00:36:40.952Z,2.84
2019-02-02T00:37:40.929Z,2.93
2019-02-02T00:38:40.930Z,2.87
2019-02-02T00:39:40.884Z,2.87
2019-02-02T00:40:40.881Z,2.87
2019-02-02T00:41:40.843Z,2.90
2019-02-02T00:42:40.822Z,2.89
2019-02-02T00:43:40.812Z,2.87
2019-02-02T00:44:40.776Z,2.85
2019-02-02T00:45:40.768Z,2.82
2019-02-02T00:46:40.725Z,2.82
2019-02-02T00:47:40.705Z,2.85
2019-02-02T00:48:40.687Z,2.84
2019-02-02T00:49:40.661Z,2.82
2019-02-02T00:50:40.640Z,2.81
2019-02-02T00:51:40.636Z,2.82
2019-02-02T00:52:40.595Z,2.90
2019-02-02T00:53:40.586Z,2.77
2019-02-02T00:54:40.549Z,2.77
2019-02-02T00:55:40.528Z,2.79
2019-02-02T00:56:40.526Z,2.75
2019-02-02T00:57:40.483Z,2.75
2019-02-02T00:58:40.477Z,2.78
2019-02-02T00:59:40.576Z,2.75
2019-02-02T01:00:40.431Z,2.79
2019-02-02T01:01:40.389Z,2.67
2019-02-02T01:02:40.373Z,2.85
2019-02-02T01:03:40.352Z,2.69
2019-02-02T01:04:40.327Z,2.78
2019-02-02T01:05:40.300Z,2.72
2019-02-02T01:06:40.297Z,2.78
2019-02-02T01:07:40.276Z,2.78
2019-02-02T01:08:40.239Z,2.82
2019-02-02T01:09:40.220Z,2.81
2019-02-02T01:10:40.198Z,2.85
2019-02-02T01:11:40.192Z,2.84
2019-02-02T01:12:40.170Z,2.84
2019-02-02T01:13:40.143Z,2.84
2019-02-02T01:14:40.107Z,2.82
2019-02-02T01:15:40.086Z,2.84
2019-02-02T01:16:40.061Z,2.85
2019-02-02T01:17:40.068Z,2.82
2019-02-02T01:18:40.052Z,2.92
2019-02-02T01:19:39.992Z,2.89
2019-02-02T01:20:39.990Z,2.92
2019-02-02T01:21:39.950Z,2.90
2019-02-02T01:22:39.926Z,2.95
2019-02-02T01:23:39.931Z,2.87
2019-02-02T01:24:39.891Z,2.89
2019-02-02T01:25:39.860Z,2.92
2019-02-02T01:26:39.838Z,2.93
2019-02-02T01:27:39.833Z,2.95
2019-02-02T01:28:39.795Z,2.92
2019-02-02T01:29:39.768Z,2.89
2019-02-02T01:30:39.770Z,2.89
2019-02-02T01:31:39.724Z,2.89
2019-02-02T01:32:39.707Z,2.89
2019-02-02T01:33:39.684Z,2.92
2019-02-02T01:34:39.659Z,2.81
2019-02-02T01:35:39.654Z,2.89
2019-02-02T01:36:39.620Z,2.87
2019-02-02T01:37:39.597Z,2.95
2019-02-02T01:38:39.569Z,2.99
2019-02-02T01:39:39.615Z,3.03
2019-02-02T01:40:39.538Z,2.99
2019-02-02T01:41:40.358Z,3.02
2019-02-02T01:42:39.500Z,3.00
2019-02-02T01:43:39.547Z,2.99
2019-02-02T01:44:39.437Z,3.05
2019-02-02T01:45:39.415Z,3.06
2019-02-02T01:46:39.411Z,3.00
2019-02-02T01:47:39.376Z,2.95
2019-02-02T01:48:39.362Z,3.06
2019-02-02T01:49:39.326Z,3.06
2019-02-02T01:50:39.370Z,2.99
2019-02-02T01:51:39.283Z,3.06
2019-02-02T01:52:39.258Z,3.06
2019-02-02T01:53:39.257Z,3.02
2019-02-02T01:54:39.218Z,3.10
2019-02-02T01:55:39.195Z,2.93
2019-02-02T01:56:39.170Z,3.00
2019-02-02T01:57:39.152Z,3.03
2019-02-02T01:58:39.131Z,3.00
2019-02-02T01:59:39.120Z,3.10
2019-02-02T02:00:39.084Z,3.08
2019-02-02T02:01:41.548Z,3.11
2019-02-02T02:02:39.040Z,3.10
2019-02-02T02:03:39.032Z,3.00
2019-02-02T02:04:39.011Z,3.08
2019-02-02T02:05:38.979Z,3.11
2019-02-02T02:06:38.955Z,3.05
2019-02-02T02:07:38.934Z,3.05
2019-02-02T02:08:38.907Z,3.05
2019-02-02T02:09:38.907Z,3.00
2019-02-02T02:10:38.875Z,3.08
2019-02-02T02:11:38.838Z,3.10
2019-02-02T02:12:38.818Z,3.03
2019-02-02T02:13:38.798Z,3.10
2019-02-02T02:14:38.777Z,3.03
2019-02-02T02:15:38.748Z,3.10
2019-02-02T02:16:38.750Z,2.97
2019-02-02T02:17:38.707Z,2.85
2019-02-02T02:18:38.706Z,2.92
2019-02-02T02:19:38.662Z,2.85
2019-02-02T02:20:38.653Z,2.82
2019-02-02T02:21:38.629Z,2.95
2019-02-02T02:22:41.253Z,2.90
2019-02-02T02:23:38.600Z,2.87
2019-02-02T02:24:38.554Z,2.92
2019-02-02T02:25:38.532Z,2.97
2019-02-02T02:26:38.531Z,2.85
2019-02-02T02:27:38.484Z,2.95
2019-02-02T02:28:38.467Z,3.02
2019-02-02T02:29:38.457Z,2.95
2019-02-02T02:30:38.423Z,2.99
2019-02-02T02:31:38.399Z,3.03
2019-02-02T02:32:38.391Z,2.93
2019-02-02T02:33:38.357Z,3.06
2019-02-02T02:34:38.330Z,3.05
2019-02-02T02:35:38.325Z,3.08
2019-02-02T02:36:38.296Z,3.05
2019-02-02T02:37:38.262Z,3.11
2019-02-02T02:38:38.240Z,2.99
2019-02-02T02:39:38.227Z,3.02
2019-02-02T02:40:38.196Z,3.14
2019-02-02T02:41:38.190Z,3.08
2019-02-02T02:42:38.147Z,3.05
2019-02-02T02:43:38.132Z,3.10
2019-02-02T02:44:38.125Z,3.03
2019-02-02T02:45:38.088Z,3.08
2019-02-02T02:46:38.060Z,3.03
2019-02-02T02:47:38.040Z,3.03
2019-02-02T02:48:38.022Z,3.05
2019-02-02T02:49:37.993Z,3.06
2019-02-02T02:50:38.865Z,3.08
2019-02-02T02:51:37.944Z,3.08
2019-02-02T02:52:37.930Z,3.05
2019-02-02T02:53:37.906Z,3.13
2019-02-02T02:54:38.977Z,2.97
2019-02-02T02:55:37.873Z,2.85
2019-02-02T02:56:37.843Z,2.97
2019-02-02T02:57:37.816Z,2.87
2019-02-02T02:58:41.598Z,2.90
2019-02-02T02:59:37.770Z,2.92
2019-02-02T03:00:37.749Z,2.95
2019-02-02T03:01:37.839Z,2.99
2019-02-02T03:02:37.706Z,2.92
2019-02-02T03:03:37.703Z,2.93
2019-02-02T03:04:37.659Z,2.97
2019-02-02T03:05:37.638Z,2.97
2019-02-02T03:06:37.616Z,2.99
2019-02-02T03:07:37.592Z,3.03
2019-02-02T03:08:37.586Z,3.10
2019-02-02T03:09:37.549Z,3.03
2019-02-02T03:10:37.526Z,3.14
2019-02-02T03:11:37.513Z,3.03
2019-02-02T03:12:37.482Z,3.02
2019-02-02T03:13:37.463Z,2.92
2019-02-02T03:14:37.463Z,2.99
2019-02-02T03:15:37.407Z,2.99
2019-02-02T03:16:37.403Z,2.93
2019-02-02T03:17:37.378Z,2.93
2019-02-02T03:18:37.341Z,2.99
2019-02-02T03:19:37.322Z,3.03
2019-02-02T03:20:37.324Z,2.97
2019-02-02T03:21:37.291Z,2.99
2019-02-02T03:22:37.253Z,2.96
2019-02-02T03:23:37.231Z,2.97
2019-02-02T03:24:37.204Z,2.97
2019-02-02T03:25:37.204Z,2.90
2019-02-02T03:26:37.162Z,2.92
2019-02-02T03:27:37.147Z,2.90
2019-02-02T03:28:37.123Z,2.92
2019-02-02T03:29:37.097Z,2.89
2019-02-02T03:30:37.094Z,2.92
2019-02-02T03:31:37.050Z,2.95
2019-02-02T03:32:37.025Z,2.97
2019-02-02T03:33:37.025Z,2.87
2019-02-02T03:34:36.985Z,2.97
2019-02-02T03:35:36.957Z,2.99
2019-02-02T03:36:36.934Z,2.96
2019-02-02T03:37:36.920Z,2.87
2019-02-02T03:38:36.892Z,2.92
2019-02-02T03:39:36.883Z,2.95
2019-02-02T03:40:36.844Z,2.92
2019-02-02T03:41:36.834Z,2.92
2019-02-02T03:42:36.799Z,2.87
2019-02-02T03:43:36.781Z,2.84
2019-02-02T03:44:36.759Z,2.85
2019-02-02T03:45:40.354Z,2.85
2019-02-02T03:46:36.708Z,2.82
2019-02-02T03:47:36.700Z,2.79
2019-02-02T03:48:36.694Z,2.84
2019-02-02T03:49:36.642Z,2.89
2019-02-02T03:50:36.637Z,2.90
2019-02-02T03:51:36.595Z,2.89
2019-02-02T03:52:36.597Z,2.87
2019-02-02T03:53:36.558Z,2.95
2019-02-02T03:54:36.532Z,2.89
2019-02-02T03:55:36.507Z,2.93
2019-02-02T03:56:36.484Z,2.84
2019-02-02T03:57:36.462Z,2.89
2019-02-02T03:58:36.453Z,2.92
2019-02-02T03:59:36.418Z,2.89
2019-02-02T04:00:36.395Z,2.92
2019-02-02T04:01:36.373Z,2.87
2019-02-02T04:02:36.349Z,2.89
2019-02-02T04:03:36.357Z,2.84
2019-02-02T04:04:36.314Z,2.84
2019-02-02T04:05:36.284Z,2.89
2019-02-02T04:06:36.259Z,2.92
2019-02-02T04:07:36.254Z,2.87
2019-02-02T04:08:36.235Z,2.82
2019-02-02T04:09:36.191Z,2.89
2019-02-02T04:10:36.179Z,2.89
2019-02-02T04:11:36.161Z,2.85
2019-02-02T04:12:36.159Z,2.92
2019-02-02T04:13:36.110Z,2.90
2019-02-02T04:14:36.085Z,2.84
2019-02-02T04:15:36.075Z,2.82
2019-02-02T04:16:36.076Z,2.84
2019-02-02T04:17:36.119Z,2.78
2019-02-02T04:18:35.992Z,2.82
2019-02-02T04:19:35.968Z,2.92
2019-02-02T04:20:35.946Z,2.71
2019-02-02T04:21:35.920Z,2.75
2019-02-02T04:22:35.977Z,2.72
2019-02-02T04:23:35.879Z,2.71
2019-02-02T04:24:35.859Z,2.66
2019-02-02T04:25:37.833Z,2.69
2019-02-02T04:26:35.811Z,2.84
2019-02-02T04:27:35.784Z,2.78
2019-02-02T04:28:35.766Z,2.67
2019-02-02T04:29:35.747Z,2.72
2019-02-02T04:30:35.720Z,2.75
2019-02-02T04:31:35.713Z,2.75
2019-02-02T04:32:35.692Z,2.81
2019-02-02T04:33:35.665Z,2.84
2019-02-02T04:34:35.625Z,2.75
2019-02-02T04:35:35.604Z,2.69
2019-02-02T04:36:35.579Z,2.75
2019-02-02T04:37:38.140Z,2.82
2019-02-02T04:38:35.550Z,2.87
2019-02-02T04:39:35.527Z,2.85
2019-02-02T04:40:35.491Z,2.78
2019-02-02T04:41:35.488Z,2.79
2019-02-02T04:42:35.449Z,2.77
2019-02-02T04:43:35.420Z,2.78
2019-02-02T04:44:35.399Z,2.72
2019-02-02T04:45:35.378Z,2.69
2019-02-02T04:46:35.369Z,2.72
2019-02-02T04:47:35.334Z,2.69
2019-02-02T04:48:35.311Z,2.71
2019-02-02T04:49:35.292Z,2.74
2019-02-02T04:50:35.280Z,2.75
2019-02-02T04:51:35.261Z,2.71
2019-02-02T04:52:35.222Z,2.69
2019-02-02T04:53:35.240Z,2.67
2019-02-02T04:54:35.180Z,2.63
2019-02-02T04:55:35.155Z,2.67
2019-02-02T04:56:35.156Z,2.63
2019-02-02T04:57:35.111Z,2.59
2019-02-02T04:58:35.221Z,2.64
2019-02-02T04:59:35.080Z,2.64
2019-02-02T05:00:35.094Z,2.64
2019-02-02T05:01:35.010Z,2.64
2019-02-02T05:02:35.000Z,2.71
2019-02-02T05:03:34.978Z,2.69
2019-02-02T05:04:34.969Z,2.64
2019-02-02T05:05:34.935Z,2.71
2019-02-02T05:06:34.906Z,2.66
2019-02-02T05:07:34.881Z,2.66
2019-02-02T05:08:34.860Z,2.69
2019-02-02T05:09:34.857Z,2.67
2019-02-02T05:10:34.820Z,2.67
2019-02-02T05:11:34.791Z,2.67
2019-02-02T05:12:34.770Z,2.72
2019-02-02T05:13:34.748Z,2.66
2019-02-02T05:14:34.745Z,2.59
2019-02-02T05:15:34.751Z,2.67
2019-02-02T05:16:34.683Z,2.64
2019-02-02T05:17:34.661Z,2.67
2019-02-02T05:18:35.383Z,2.60
2019-02-02T05:19:34.628Z,2.63
2019-02-02T05:20:34.589Z,2.64
2019-02-02T05:21:35.383Z,2.59
2019-02-02T05:22:34.545Z,2.67
2019-02-02T05:23:34.522Z,2.60
2019-02-02T05:24:34.496Z,2.57
2019-02-02T05:25:34.478Z,2.61
2019-02-02T05:26:34.468Z,2.66
2019-02-02T05:27:34.431Z,2.63
2019-02-02T05:28:34.407Z,2.63
2019-02-02T05:29:41.129Z,2.63
2019-02-02T05:30:34.383Z,2.59
2019-02-02T05:31:34.348Z,2.63
2019-02-02T05:32:34.336Z,2.60
2019-02-02T05:33:34.291Z,2.60
2019-02-02T05:34:34.274Z,2.63
2019-02-02T05:35:34.259Z,2.59
2019-02-02T05:36:34.237Z,2.60
2019-02-02T05:37:34.220Z,2.59
2019-02-02T05:38:34.179Z,2.66
2019-02-02T05:39:34.163Z,2.67
2019-02-02T05:40:34.151Z,2.66
2019-02-02T05:41:34.232Z,2.69
2019-02-02T05:42:34.093Z,2.66
2019-02-02T05:43:34.073Z,2.64
2019-02-02T05:44:34.045Z,2.69
2019-02-02T05:45:34.029Z,2.66
2019-02-02T05:46:34.040Z,2.57
2019-02-02T05:47:33.979Z,2.60
2019-02-02T05:48:34.879Z,2.64
2019-02-02T05:49:33.932Z,2.64
2019-02-02T05:50:33.916Z,2.61
2019-02-02T05:51:33.885Z,2.63
2019-02-02T05:52:33.911Z,2.61
2019-02-02T05:53:33.845Z,2.61
2019-02-02T05:54:33.824Z,2.66
2019-02-02T05:55:33.799Z,2.64
2019-02-02T05:56:33.774Z,2.64
2019-02-02T05:57:33.772Z,2.63
2019-02-02T05:58:33.727Z,2.66
2019-02-02T05:59:33.708Z,2.64
2019-02-02T06:00:33.685Z,2.63
2019-02-02T06:01:33.667Z,2.66
2019-02-02T06:02:33.661Z,2.63
2019-02-02T06:03:33.619Z,2.66
2019-02-02T06:04:33.596Z,2.69
2019-02-02T06:05:33.576Z,2.71
2019-02-02T06:06:33.550Z,2.69
2019-02-02T06:07:33.528Z,2.64
2019-02-02T06:08:33.528Z,2.74
2019-02-02T06:09:33.483Z,2.67
2019-02-02T06:10:33.457Z,2.64
2019-02-02T06:11:33.452Z,2.61
2019-02-02T06:12:33.415Z,2.66
2019-02-02T06:13:33.391Z,2.67
2019-02-02T06:14:33.420Z,2.75
2019-02-02T06:15:33.349Z,2.71
2019-02-02T06:16:33.340Z,2.71
2019-02-02T06:17:33.300Z,2.72
2019-02-02T06:18:33.294Z,2.72
2019-02-02T06:19:33.271Z,2.77
2019-02-02T06:20:33.279Z,2.78
2019-02-02T06:21:33.210Z,2.71
2019-02-02T06:22:33.194Z,2.72
2019-02-02T06:23:33.889Z,2.74
2019-02-02T06:24:33.196Z,2.75
2019-02-02T06:25:33.120Z,2.74
2019-02-02T06:26:33.099Z,2.71
2019-02-02T06:27:33.071Z,2.72
2019-02-02T06:28:33.051Z,2.75
2019-02-02T06:29:33.049Z,2.69
2019-02-02T06:30:33.003Z,2.72
2019-02-02T06:31:33.000Z,2.74
2019-02-02T06:32:32.960Z,2.72
2019-02-02T06:33:32.934Z,2.67
2019-02-02T06:34:32.916Z,2.74
2019-02-02T06:35:32.915Z,2.75
2019-02-02T06:36:32.878Z,2.77
2019-02-02T06:37:32.886Z,2.74
2019-02-02T06:38:32.832Z,2.77
2019-02-02T06:39:32.811Z,2.75
2019-02-02T06:40:32.786Z,2.71
2019-02-02T06:41:32.776Z,2.75
2019-02-02T06:42:32.738Z,2.75
2019-02-02T06:43:32.708Z,2.75
2019-02-02T06:44:32.694Z,2.75
2019-02-02T06:45:32.665Z,2.78
2019-02-02T06:46:42.958Z,2.78
2019-02-02T06:47:32.623Z,2.82
2019-02-02T06:48:33.347Z,2.78
2019-02-02T06:49:32.586Z,2.84
2019-02-02T06:50:32.561Z,2.67
2019-02-02T06:51:32.533Z,2.72
2019-02-02T06:52:32.531Z,2.81
2019-02-02T06:53:32.487Z,2.81
2019-02-02T06:54:33.986Z,2.81
2019-02-02T06:55:32.446Z,2.77
2019-02-02T06:56:32.420Z,2.74
2019-02-02T06:57:32.398Z,2.75
2019-02-02T06:58:32.401Z,2.82
2019-02-02T06:59:32.351Z,2.78
2019-02-02T07:00:32.330Z,2.74
2019-02-02T07:01:32.306Z,2.82
2019-02-02T07:02:32.281Z,2.77
2019-02-02T07:03:32.267Z,2.77
2019-02-02T07:04:32.257Z,2.84
2019-02-02T07:05:33.929Z,2.87
2019-02-02T07:06:32.194Z,2.78
2019-02-02T07:07:32.176Z,2.82
2019-02-02T07:08:32.156Z,2.84
2019-02-02T07:09:32.135Z,2.87
2019-02-02T07:10:32.130Z,2.90
2019-02-02T07:11:32.097Z,2.87
2019-02-02T07:12:32.061Z,2.89
2019-02-02T07:13:32.057Z,2.89
2019-02-02T07:14:32.011Z,2.87
2019-02-02T07:15:32.005Z,2.89
2019-02-02T07:16:31.968Z,2.87
2019-02-02T07:17:31.947Z,2.89
2019-02-02T07:18:31.922Z,2.87
2019-02-02T07:19:31.901Z,2.87
2019-02-02T07:20:31.893Z,2.89
2019-02-02T07:21:31.867Z,2.92
2019-02-02T07:22:31.840Z,2.89
2019-02-02T07:23:31.812Z,2.84
2019-02-02T07:24:31.790Z,2.92
2019-02-02T07:25:31.787Z,2.89
2019-02-02T07:26:31.755Z,2.96
2019-02-02T07:27:32.382Z,2.97
2019-02-02T07:28:31.720Z,2.96
2019-02-02T07:29:31.683Z,3.06
2019-02-02T07:30:31.672Z,3.06
2019-02-02T07:31:31.649Z,3.10
2019-02-02T07:32:31.610Z,2.93
2019-02-02T07:33:31.593Z,3.06
2019-02-02T07:34:31.565Z,3.00
2019-02-02T07:35:31.558Z,3.05
2019-02-02T07:36:31.520Z,3.10
2019-02-02T07:37:31.498Z,3.03
2019-02-02T07:38:31.566Z,3.03
2019-02-02T07:39:31.460Z,2.95
2019-02-02T07:40:31.437Z,3.08
2019-02-02T07:41:31.417Z,3.03
2019-02-02T07:42:31.387Z,3.03
2019-02-02T07:43:31.366Z,3.03
2019-02-02T07:44:31.360Z,3.08
2019-02-02T07:45:31.362Z,3.05
2019-02-02T07:46:31.297Z,2.95
2019-02-02T07:47:31.274Z,3.02
2019-02-02T07:48:31.257Z,3.00
2019-02-02T07:49:31.245Z,2.99
2019-02-02T07:50:31.202Z,3.00
2019-02-02T07:51:31.187Z,3.15
2019-02-02T07:52:31.164Z,3.00
2019-02-02T07:53:31.138Z,3.14
2019-02-02T07:54:33.112Z,3.13
2019-02-02T07:55:31.144Z,3.15
2019-02-02T07:56:31.077Z,3.06
2019-02-02T07:57:31.054Z,3.17
2019-02-02T07:58:31.039Z,3.14
2019-02-02T07:59:30.996Z,3.14
2019-02-02T08:00:40.452Z,3.21
2019-02-02T08:01:30.967Z,3.13
2019-02-02T08:02:30.947Z,3.15
2019-02-02T08:03:30.935Z,3.14
2019-02-02T08:04:30.899Z,3.21
2019-02-02T08:05:30.878Z,3.08
2019-02-02T08:06:30.846Z,3.13
2019-02-02T08:07:30.818Z,3.21
2019-02-02T08:08:30.830Z,3.26
2019-02-02T08:09:30.779Z,3.23
2019-02-02T08:10:30.780Z,3.28
2019-02-02T08:11:30.739Z,3.21
2019-02-02T08:12:30.718Z,3.31
2019-02-02T08:13:30.713Z,3.29
2019-02-02T08:14:30.666Z,3.29
2019-02-02T08:15:30.647Z,3.21
2019-02-02T08:16:30.626Z,3.23
2019-02-02T08:17:32.368Z,3.20
2019-02-02T08:18:30.579Z,3.40
2019-02-02T08:19:30.557Z,3.39
2019-02-02T08:20:30.535Z,3.32
2019-02-02T08:21:30.530Z,3.31
2019-02-02T08:22:30.499Z,3.35
2019-02-02T08:23:30.488Z,3.39
2019-02-02T08:24:30.449Z,3.39
2019-02-02T08:25:30.449Z,3.36
2019-02-02T08:26:30.411Z,3.39
2019-02-02T08:27:30.388Z,3.33
2019-02-02T08:28:30.356Z,3.39
2019-02-02T08:29:30.357Z,3.43
2019-02-02T08:30:30.307Z,3.35
2019-02-02T08:31:30.287Z,3.36
2019-02-02T08:32:30.265Z,3.32
2019-02-02T08:33:30.246Z,3.36
2019-02-02T08:34:30.225Z,3.47
2019-02-02T08:35:30.217Z,3.35
2019-02-02T08:36:30.179Z,3.39
2019-02-02T08:37:30.159Z,3.42
2019-02-02T08:38:30.129Z,3.47
2019-02-02T08:39:30.114Z,3.40
2019-02-02T08:40:30.103Z,3.42
2019-02-02T08:41:30.091Z,3.42
2019-02-02T08:42:30.066Z,3.48
2019-02-02T08:43:30.031Z,3.50
2019-02-02T08:44:29.999Z,3.33
2019-02-02T08:45:29.983Z,3.35
2019-02-02T08:46:29.957Z,3.40
2019-02-02T08:47:32.670Z,3.40
2019-02-02T08:48:29.926Z,3.50
2019-02-02T08:49:29.897Z,3.40
2019-02-02T08:50:29.869Z,3.43
2019-02-02T08:51:29.852Z,3.45
2019-02-02T08:52:29.824Z,3.40
2019-02-02T08:53:29.827Z,3.51
2019-02-02T08:54:29.780Z,3.52
2019-02-02T08:55:29.764Z,3.61
2019-02-02T08:56:29.801Z,3.48
2019-02-02T08:57:29.789Z,3.51
2019-02-02T08:58:29.710Z,3.57
2019-02-02T08:59:29.668Z,3.50
2019-02-02T09:00:29.669Z,3.36
2019-02-02T09:01:29.627Z,3.35
2019-02-02T09:02:29.615Z,3.50
2019-02-02T09:03:29.607Z,3.40
2019-02-02T09:04:29.556Z,3.43
2019-02-02T09:05:29.538Z,3.43
2019-02-02T09:06:38.537Z,3.55
2019-02-02T09:07:29.493Z,3.47
2019-02-02T09:08:29.483Z,3.48
2019-02-02T09:09:29.474Z,3.40
2019-02-02T09:10:29.428Z,3.36
2019-02-02T09:11:29.409Z,3.36
2019-02-02T09:12:29.861Z,3.45
2019-02-02T09:13:29.361Z,3.45
2019-02-02T09:14:29.346Z,3.39
2019-02-02T09:15:29.337Z,3.47
2019-02-02T09:16:29.296Z,3.43
2019-02-02T09:17:29.271Z,3.47
2019-02-02T09:18:29.254Z,3.36
2019-02-02T09:19:29.229Z,3.43
2019-02-02T09:20:29.237Z,3.36
2019-02-02T09:21:29.180Z,3.33
2019-02-02T09:22:29.167Z,3.50
2019-02-02T09:23:29.141Z,3.39
2019-02-02T09:24:29.122Z,3.40
2019-02-02T09:25:29.247Z,3.39
2019-02-02T09:26:29.098Z,3.50
2019-02-02T09:27:29.054Z,3.39
2019-02-02T09:28:29.041Z,3.45
2019-02-02T09:29:29.003Z,3.42
2019-02-02T09:30:28.989Z,3.50
2019-02-02T09:31:28.977Z,3.40
2019-02-02T09:32:28.943Z,3.55
2019-02-02T09:33:28.945Z,3.55
2019-02-02T09:34:29.053Z,3.52
2019-02-02T09:35:28.880Z,3.58
2019-02-02T09:36:28.853Z,3.60
2019-02-02T09:37:28.831Z,3.52
2019-02-02T09:38:28.806Z,3.57
2019-02-02T09:39:28.800Z,3.57
2019-02-02T09:40:28.764Z,3.54
2019-02-02T09:41:28.762Z,3.50
2019-02-02T09:42:28.721Z,3.52
2019-02-02T09:43:28.697Z,3.39
2019-02-02T09:44:28.684Z,3.33
2019-02-02T09:45:28.662Z,3.47
2019-02-02T09:46:28.630Z,3.47
2019-02-02T09:47:28.634Z,3.42
2019-02-02T09:48:28.588Z,3.45
2019-02-02T09:49:28.566Z,3.45
2019-02-02T09:50:28.543Z,3.52
2019-02-02T09:51:28.517Z,3.50
2019-02-02T09:52:28.522Z,3.58
2019-02-02T09:53:28.482Z,3.51
2019-02-02T09:54:28.453Z,3.54
2019-02-02T09:55:28.438Z,3.60
2019-02-02T09:56:28.408Z,3.55
2019-02-02T09:57:28.385Z,3.52
2019-02-02T09:58:28.394Z,3.65
2019-02-02T09:59:28.359Z,3.68
2019-02-02T10:00:28.320Z,3.70
2019-02-02T10:01:28.298Z,3.75
2019-02-02T10:02:28.274Z,3.68
2019-02-02T10:03:28.276Z,3.68
2019-02-02T10:04:28.229Z,3.70
2019-02-02T10:05:28.210Z,3.75
2019-02-02T10:06:28.196Z,3.58
2019-02-02T10:07:28.173Z,3.70
2019-02-02T10:08:28.367Z,3.65
2019-02-02T10:09:28.137Z,3.66
2019-02-02T10:10:28.114Z,3.72
2019-02-02T10:11:28.077Z,3.70
2019-02-02T10:12:28.061Z,3.72
2019-02-02T10:13:28.034Z,3.73
2019-02-02T10:14:28.030Z,3.73
2019-02-02T10:15:27.992Z,3.68
2019-02-02T10:16:27.973Z,3.72
2019-02-02T10:17:27.950Z,3.70
2019-02-02T10:18:27.928Z,3.69
2019-02-02T10:19:27.899Z,3.61
2019-02-02T10:20:27.898Z,3.69
2019-02-02T10:21:27.859Z,3.68
2019-02-02T10:22:27.846Z,3.60
2019-02-02T10:23:27.819Z,3.69
2019-02-02T10:24:28.656Z,3.73
2019-02-02T10:25:27.771Z,3.65
2019-02-02T10:26:27.768Z,3.72
2019-02-02T10:27:27.726Z,3.66
2019-02-02T10:28:27.813Z,3.73
2019-02-02T10:29:27.687Z,3.72
2019-02-02T10:30:27.665Z,3.69
2019-02-02T10:31:38.839Z,3.72
2019-02-02T10:32:27.614Z,3.68
2019-02-02T10:33:27.595Z,3.70
2019-02-02T10:34:28.386Z,3.69
2019-02-02T10:35:27.549Z,3.68
2019-02-02T10:36:27.543Z,3.66
2019-02-02T10:37:27.508Z,3.68
2019-02-02T10:38:27.484Z,3.62
2019-02-02T10:39:27.475Z,3.62
2019-02-02T10:40:29.887Z,3.54
2019-02-02T10:41:27.421Z,3.61
2019-02-02T10:42:27.397Z,3.65
2019-02-02T10:43:27.374Z,3.58
2019-02-02T10:44:27.367Z,3.52
2019-02-02T10:45:27.334Z,3.60
2019-02-02T10:46:27.307Z,3.58
2019-02-02T10:47:27.291Z,3.65
2019-02-02T10:48:27.291Z,3.60
2019-02-02T10:49:27.242Z,3.52
2019-02-02T10:50:27.217Z,3.52
2019-02-02T10:51:27.197Z,3.60
2019-02-02T10:52:27.171Z,3.55
2019-02-02T10:53:27.161Z,3.66
2019-02-02T10:54:27.147Z,3.60
2019-02-02T10:55:27.109Z,3.61
2019-02-02T10:56:27.082Z,3.62
2019-02-02T10:57:27.069Z,3.70
2019-02-02T10:58:27.039Z,3.62
2019-02-02T10:59:27.031Z,3.65
2019-02-02T11:00:27.012Z,3.57
2019-02-02T11:01:26.968Z,3.55
2019-02-02T11:02:26.947Z,3.58
2019-02-02T11:03:26.928Z,3.57
2019-02-02T11:04:26.901Z,3.54
2019-02-02T11:05:26.906Z,3.58
2019-02-02T11:06:26.986Z,3.54
2019-02-02T11:07:26.851Z,3.58
2019-02-02T11:08:26.836Z,3.60
2019-02-02T11:09:26.876Z,3.62
2019-02-02T11:10:26.770Z,3.62
2019-02-02T11:11:26.885Z,3.69
2019-02-02T11:12:26.780Z,3.62
2019-02-02T11:13:26.751Z,3.61
2019-02-02T11:14:26.685Z,3.68
2019-02-02T11:15:26.852Z,3.60
2019-02-02T11:16:26.698Z,3.54
2019-02-02T11:17:26.717Z,3.65
2019-02-02T11:18:26.618Z,3.66
2019-02-02T11:19:26.735Z,3.54
2019-02-02T11:20:26.680Z,3.73
2019-02-02T11:21:26.526Z,3.68
2019-02-02T11:22:26.643Z,3.65
2019-02-02T11:23:26.516Z,3.68
2019-02-02T11:24:26.516Z,3.69
2019-02-02T11:25:26.477Z,3.68
2019-02-02T11:26:26.483Z,3.65
2019-02-02T11:27:26.600Z,3.75
2019-02-02T11:28:26.377Z,3.72
2019-02-02T11:29:26.432Z,3.72
2019-02-02T11:30:26.591Z,3.79
2019-02-02T11:31:26.305Z,3.86
2019-02-02T11:32:26.307Z,3.90
2019-02-02T11:33:26.270Z,3.84
2019-02-02T11:34:26.238Z,3.86
2019-02-02T11:35:26.215Z,3.87
2019-02-02T11:36:26.220Z,3.86
2019-02-02T11:37:26.176Z,3.90
2019-02-02T11:38:26.162Z,3.94
2019-02-02T11:39:26.131Z,3.86
2019-02-02T11:40:26.103Z,3.86
2019-02-02T11:41:26.081Z,3.87
2019-02-02T11:42:26.091Z,3.73
2019-02-02T11:43:26.045Z,3.70
2019-02-02T11:44:26.024Z,3.62
2019-02-02T11:45:25.994Z,3.68
2019-02-02T11:46:25.969Z,3.76
2019-02-02T11:47:25.963Z,3.65
2019-02-02T11:48:25.942Z,3.57
2019-02-02T11:49:25.906Z,3.62
2019-02-02T11:50:25.892Z,3.60
2019-02-02T11:51:25.862Z,3.65
2019-02-02T11:52:25.859Z,3.52
2019-02-02T11:53:25.820Z,3.52
2019-02-02T11:54:25.800Z,3.55
2019-02-02T11:55:25.775Z,3.55
2019-02-02T11:56:25.764Z,3.54
2019-02-02T11:57:25.750Z,3.50
2019-02-02T11:58:25.818Z,3.58
2019-02-02T11:59:25.682Z,3.54
2019-02-02T12:00:25.691Z,3.50
2019-02-02T12:01:25.641Z,3.48
2019-02-02T12:02:25.614Z,3.47
2019-02-02T12:03:25.593Z,3.51
2019-02-02T12:04:25.570Z,3.54
2019-02-02T12:05:25.552Z,3.47
2019-02-02T12:06:25.546Z,3.40
2019-02-02T12:07:25.507Z,3.33
2019-02-02T12:08:25.485Z,3.42
2019-02-02T12:09:25.458Z,3.42
2019-02-02T12:10:25.434Z,3.43
2019-02-02T12:11:25.454Z,3.40
2019-02-02T12:12:25.395Z,3.33
2019-02-02T12:13:25.374Z,3.47
2019-02-02T12:14:25.352Z,3.47
2019-02-02T12:15:25.327Z,3.36
2019-02-02T12:16:25.314Z,3.42
2019-02-02T12:17:25.299Z,3.47
2019-02-02T12:18:25.275Z,3.33
2019-02-02T12:19:25.237Z,3.24
2019-02-02T12:20:25.234Z,3.35
2019-02-02T12:21:25.192Z,3.18
2019-02-02T12:22:25.191Z,3.24
2019-02-02T12:23:25.164Z,3.24
2019-02-02T12:24:25.140Z,3.31
2019-02-02T12:25:25.106Z,3.32
2019-02-02T12:26:25.085Z,3.35
2019-02-02T12:27:25.082Z,3.26
2019-02-02T12:28:25.063Z,3.32
2019-02-02T12:29:25.028Z,3.26
2019-02-02T12:30:24.999Z,3.28
2019-02-02T12:31:24.971Z,3.36
2019-02-02T12:32:26.679Z,3.28
2019-02-02T12:33:25.951Z,3.39
2019-02-02T12:34:24.919Z,3.35
2019-02-02T12:37:06.865Z,3.32
2019-02-02T12:38:06.831Z,3.36
2019-02-02T12:39:06.854Z,3.50
2019-02-02T12:40:06.794Z,3.36
2019-02-02T12:41:07.000Z,3.45
2019-02-02T12:42:06.753Z,3.36
2019-02-02T12:43:06.728Z,3.33
2019-02-02T12:44:06.733Z,3.43
2019-02-02T12:45:06.687Z,3.43
2019-02-02T12:46:06.649Z,3.36
2019-02-02T12:47:06.629Z,3.36
2019-02-02T12:48:06.609Z,3.40
2019-02-02T12:49:06.602Z,3.35
2019-02-02T12:50:06.589Z,3.29
2019-02-02T12:51:06.544Z,3.21
2019-02-02T12:52:06.523Z,3.29
2019-02-02T12:54:48.884Z,3.23
2019-02-02T12:55:48.846Z,3.28
2019-02-02T12:56:48.822Z,3.31
2019-02-02T12:57:48.802Z,3.26
2019-02-02T12:58:50.117Z,3.24
2019-02-02T12:59:48.763Z,3.23
2019-02-02T13:00:48.744Z,3.28
2019-02-02T13:01:48.699Z,3.28
2019-02-02T13:02:48.691Z,3.29
2019-02-02T13:03:48.656Z,3.26
2019-02-02T13:04:48.629Z,3.28
2019-02-02T13:05:48.638Z,3.28
2019-02-02T13:06:48.580Z,3.28
2019-02-02T13:07:48.571Z,3.26
2019-02-02T13:08:48.542Z,3.26
2019-02-02T13:09:48.524Z,3.24
2019-02-02T13:10:48.492Z,3.24
2019-02-02T13:11:48.496Z,3.31
2019-02-02T13:12:48.473Z,3.24
2019-02-02T13:13:48.428Z,3.26
2019-02-02T13:14:48.405Z,3.28
2019-02-02T13:15:48.401Z,3.29
2019-02-02T13:16:50.226Z,3.29
2019-02-02T13:17:48.346Z,3.20
2019-02-02T13:18:48.320Z,3.17
2019-02-02T13:19:48.299Z,3.23
2019-02-02T13:20:48.285Z,3.32
2019-02-02T13:21:48.261Z,3.36